Time;durP1;ratioP1;P1;durP2;ratioP2;P2;SDS_P1;SDS_P2;PMS_P1;PMS_P2;Temp;Humidity;BMP_temperature;BMP_pressure;BME280_temperature;BME280_humidity;BME280_pressure;Samples;Min_cycle;Max_cycle;Signal;HPM_P1;HPM_P2
2023/12/18 00:01:27;;;;;;;54.42;27.92;;;;;;;;;;5068905;28;20036;-77
2023/12/18 00:03:54;;;;;;;50.83;27.25;;;;;;;;;;5071000;28;20071;-76
2023/12/18 00:06:21;;;;;;;53.55;26.13;;;;;;;;;;5085792;28;20053;-76
2023/12/18 00:08:47;;;;;;;54.28;26.83;;;;;;;;;;5087204;28;20043;-77
2023/12/18 00:11:14;;;;;;;53.65;27.40;;;;;;;;;;5070648;28;20111;-76
2023/12/18 00:13:40;;;;;;;50.55;27.90;;;;;;;;;;5071247;28;20048;-77
2023/12/18 00:16:07;;;;;;;51.55;27.88;;;;;;;;;;5071664;28;20481;-77
2023/12/18 00:18:33;;;;;;;50.42;26.15;;;;;;;;;;5071172;28;20043;-77
2023/12/18 00:20:59;;;;;;;51.35;26.50;;;;;;;;;;5068951;28;20041;-76
2023/12/18 00:23:25;;;;;;;56.60;27.13;;;;;;;;;;5071682;28;20032;-77
2023/12/18 00:25:51;;;;;;;55.60;26.85;;;;;;;;;;5070081;28;20040;-78
2023/12/18 00:28:17;;;;;;;55.65;27.98;;;;;;;;;;5069538;28;20072;-77
2023/12/18 00:30:44;;;;;;;53.13;26.70;;;;;;;;;;5070852;28;20033;-77
2023/12/18 00:33:10;;;;;;;55.30;27.50;;;;;;;;;;5071256;28;20103;-76
2023/12/18 00:35:36;;;;;;;52.35;26.77;;;;;;;;;;5068829;28;20094;-76
2023/12/18 00:38:02;;;;;;;47.55;26.25;;;;;;;;;;5069822;28;20358;-78
2023/12/18 00:40:28;;;;;;;51.55;25.90;;;;;;;;;;5069291;28;20090;-80
2023/12/18 00:42:54;;;;;;;54.75;27.15;;;;;;;;;;5070325;28;20035;-79
2023/12/18 00:45:21;;;;;;;51.50;26.27;;;;;;;;;;5067471;28;20044;-76
2023/12/18 00:47:47;;;;;;;44.20;26.00;;;;;;;;;;5069464;28;20032;-77
2023/12/18 00:50:13;;;;;;;49.28;24.55;;;;;;;;;;5069259;28;20032;-77
2023/12/18 00:52:39;;;;;;;47.58;25.90;;;;;;;;;;5054214;28;20118;-77
2023/12/18 00:55:06;;;;;;;52.33;25.17;;;;;;;;;;5071654;28;20120;-77
2023/12/18 00:57:32;;;;;;;50.53;26.05;;;;;;;;;;5069290;28;20114;-75
2023/12/18 00:59:59;;;;;;;54.10;26.20;;;;;;;;;;5069466;28;20041;-76
2023/12/18 01:02:25;;;;;;;46.00;26.00;;;;;;;;;;5067605;28;20036;-77
2023/12/18 01:04:52;;;;;;;53.50;27.00;;;;;;;;;;5070042;28;20032;-77
2023/12/18 01:07:20;;;;;;;48.83;25.15;;;;;;;;;;5068168;28;20082;-76
2023/12/18 01:09:46;;;;;;;50.78;26.25;;;;;;;;;;5068089;28;20039;-77
2023/12/18 01:12:13;;;;;;;49.95;24.65;;;;;;;;;;5086341;28;20405;-76
2023/12/18 01:14:39;;;;;;;50.40;25.75;;;;;;;;;;5071931;28;20048;-76
2023/12/18 01:17:05;;;;;;;44.33;25.70;;;;;;;;;;5085577;28;20035;-77
2023/12/18 01:19:31;;;;;;;51.83;26.77;;;;;;;;;;5069687;28;20055;-76
2023/12/18 01:21:58;;;;;;;50.22;24.70;;;;;;;;;;5070307;28;20131;-77
2023/12/18 01:24:24;;;;;;;47.88;25.27;;;;;;;;;;5070955;28;20457;-76
2023/12/18 01:26:50;;;;;;;48.95;25.50;;;;;;;;;;5068108;28;20123;-78
2023/12/18 01:29:16;;;;;;;58.05;25.65;;;;;;;;;;5069520;28;20041;-76
2023/12/18 01:31:42;;;;;;;52.53;24.67;;;;;;;;;;5069459;28;20044;-76
2023/12/18 01:34:08;;;;;;;50.83;25.17;;;;;;;;;;5066988;28;20032;-76
2023/12/18 01:36:34;;;;;;;49.70;24.95;;;;;;;;;;5068597;28;20063;-76
2023/12/18 01:39:01;;;;;;;46.60;25.13;;;;;;;;;;5067967;28;20025;-76
2023/12/18 01:41:27;;;;;;;52.97;26.15;;;;;;;;;;5069484;28;20070;-76
2023/12/18 01:43:53;;;;;;;45.03;26.15;;;;;;;;;;5068260;28;20435;-75
2023/12/18 01:46:24;;;;;;;48.88;24.83;;;;;;;;;;5069037;28;20435;-77
2023/12/18 01:48:50;;;;;;;54.22;24.52;;;;;;;;;;5068687;28;20021;-76
2023/12/18 01:51:18;;;;;;;57.65;25.17;;;;;;;;;;5066929;28;20028;-76
2023/12/18 01:53:45;;;;;;;51.83;25.33;;;;;;;;;;5069945;28;20032;-77
2023/12/18 01:56:13;;;;;;;47.20;24.88;;;;;;;;;;5068899;28;20047;-77
2023/12/18 01:58:40;;;;;;;47.58;24.95;;;;;;;;;;5071011;28;20036;-77
2023/12/18 02:01:08;;;;;;;49.78;24.73;;;;;;;;;;5049798;28;20029;-75
2023/12/18 02:03:36;;;;;;;46.40;24.83;;;;;;;;;;5069124;28;20032;-75
2023/12/18 02:06:04;;;;;;;52.30;26.45;;;;;;;;;;5068927;28;20068;-76
2023/12/18 02:08:34;;;;;;;50.03;25.60;;;;;;;;;;5070936;28;20025;-77
2023/12/18 02:11:00;;;;;;;53.83;25.83;;;;;;;;;;5067891;28;20025;-76
2023/12/18 02:13:26;;;;;;;53.50;25.77;;;;;;;;;;5068424;28;20032;-76
2023/12/18 02:15:52;;;;;;;50.42;23.85;;;;;;;;;;5068329;28;20029;-76
2023/12/18 02:18:19;;;;;;;47.42;24.80;;;;;;;;;;5065718;28;20055;-76
2023/12/18 02:20:46;;;;;;;48.35;24.98;;;;;;;;;;5067075;28;20496;-77
2023/12/18 02:23:12;;;;;;;47.92;25.02;;;;;;;;;;5068340;28;20059;-76
2023/12/18 02:25:38;;;;;;;47.45;24.75;;;;;;;;;;5085489;28;20067;-76
2023/12/18 02:28:05;;;;;;;49.17;24.25;;;;;;;;;;5067414;28;20097;-77
2023/12/18 02:30:32;;;;;;;53.20;25.70;;;;;;;;;;5069215;28;20020;-76
2023/12/18 02:32:58;;;;;;;48.28;23.70;;;;;;;;;;5068655;28;20481;-76
2023/12/18 02:35:25;;;;;;;53.35;25.05;;;;;;;;;;5068689;28;20109;-76
2023/12/18 02:37:51;;;;;;;46.15;25.40;;;;;;;;;;5066501;28;20016;-75
2023/12/18 02:40:17;;;;;;;49.60;24.25;;;;;;;;;;5050017;28;20046;-78
2023/12/18 02:42:44;;;;;;;44.38;23.75;;;;;;;;;;5068050;28;20374;-76
2023/12/18 02:45:10;;;;;;;45.97;23.58;;;;;;;;;;5067473;28;20040;-75
2023/12/18 02:47:37;;;;;;;46.35;22.55;;;;;;;;;;5068362;28;20393;-76
2023/12/18 02:50:03;;;;;;;50.35;24.23;;;;;;;;;;5067696;28;20043;-75
2023/12/18 02:52:29;;;;;;;43.58;22.58;;;;;;;;;;5067633;28;20028;-78
2023/12/18 02:54:57;;;;;;;49.00;24.65;;;;;;;;;;5066256;28;20032;-77
2023/12/18 02:57:23;;;;;;;51.55;23.65;;;;;;;;;;5067899;28;20040;-76
2023/12/18 02:59:49;;;;;;;56.88;24.05;;;;;;;;;;5069345;28;20041;-77
2023/12/18 03:02:15;;;;;;;47.75;24.88;;;;;;;;;;5063053;28;20059;-77
2023/12/18 03:04:42;;;;;;;45.60;25.60;;;;;;;;;;5067664;28;20060;-77
2023/12/18 03:07:11;;;;;;;48.20;24.50;;;;;;;;;;5081529;28;20040;-75
2023/12/18 03:09:37;;;;;;;47.67;25.65;;;;;;;;;;5082757;28;20429;-77
2023/12/18 03:12:04;;;;;;;45.92;23.77;;;;;;;;;;5065409;28;20040;-76
2023/12/18 03:14:30;;;;;;;56.83;26.55;;;;;;;;;;5083376;28;20036;-77
2023/12/18 03:16:56;;;;;;;55.83;25.10;;;;;;;;;;5068195;28;20041;-77
2023/12/18 03:19:22;;;;;;;46.58;23.63;;;;;;;;;;5068705;28;20051;-77
2023/12/18 03:21:49;;;;;;;45.05;23.10;;;;;;;;;;5049961;28;20036;-77
2023/12/18 03:24:15;;;;;;;50.72;25.73;;;;;;;;;;5070032;28;20062;-77
2023/12/18 03:26:41;;;;;;;52.17;24.20;;;;;;;;;;5083913;28;20098;-77
2023/12/18 03:29:08;;;;;;;46.30;24.00;;;;;;;;;;5071371;28;20556;-76
2023/12/18 03:31:34;;;;;;;49.28;24.70;;;;;;;;;;5072062;28;20029;-77
2023/12/18 03:34:00;;;;;;;48.38;23.63;;;;;;;;;;5069854;28;20031;-77
2023/12/18 03:36:26;;;;;;;52.13;23.95;;;;;;;;;;5071450;28;20020;-76
2023/12/18 03:38:53;;;;;;;46.50;23.33;;;;;;;;;;5071318;28;20040;-77
2023/12/18 03:41:19;;;;;;;49.40;23.15;;;;;;;;;;5069865;28;20056;-76
2023/12/18 03:43:45;;;;;;;46.85;23.70;;;;;;;;;;5072051;28;20138;-77
2023/12/18 03:46:11;;;;;;;45.17;24.58;;;;;;;;;;5071612;28;20036;-76
2023/12/18 03:48:37;;;;;;;47.60;24.58;;;;;;;;;;5069891;28;20039;-76
2023/12/18 03:51:03;;;;;;;42.42;23.73;;;;;;;;;;5071250;28;20024;-77
2023/12/18 03:53:30;;;;;;;50.40;24.85;;;;;;;;;;5079132;28;20059;-76
2023/12/18 03:55:56;;;;;;;53.78;23.88;;;;;;;;;;5067914;28;20071;-75
2023/12/18 03:58:22;;;;;;;43.63;23.60;;;;;;;;;;5070226;28;20040;-76
2023/12/18 04:00:48;;;;;;;53.33;23.75;;;;;;;;;;5071047;28;20028;-77
2023/12/18 04:03:14;;;;;;;51.05;23.70;;;;;;;;;;5068956;28;20020;-76
2023/12/18 04:05:41;;;;;;;44.42;22.15;;;;;;;;;;5070486;28;20055;-76
2023/12/18 04:08:07;;;;;;;46.85;23.55;;;;;;;;;;5071188;28;20105;-77
2023/12/18 04:10:33;;;;;;;56.65;24.13;;;;;;;;;;5068903;28;20017;-77
2023/12/18 04:12:59;;;;;;;47.30;23.75;;;;;;;;;;5068998;28;20095;-75
2023/12/18 04:15:26;;;;;;;56.65;23.88;;;;;;;;;;5069804;28;20067;-78
2023/12/18 04:17:55;;;;;;;49.40;24.58;;;;;;;;;;5087617;28;20045;-76
2023/12/18 04:20:21;;;;;;;56.65;23.52;;;;;;;;;;5069484;28;20077;-76
2023/12/18 04:22:47;;;;;;;45.28;24.65;;;;;;;;;;5070997;28;20036;-76
2023/12/18 04:25:13;;;;;;;44.83;23.73;;;;;;;;;;5086205;28;20094;-76
2023/12/18 04:27:39;;;;;;;46.72;24.13;;;;;;;;;;5070012;28;20039;-76
2023/12/18 04:30:06;;;;;;;46.53;23.85;;;;;;;;;;5070347;28;20038;-77
2023/12/18 04:32:32;;;;;;;44.78;24.63;;;;;;;;;;5052057;28;20050;-76
2023/12/18 04:34:58;;;;;;;44.47;23.83;;;;;;;;;;5068715;28;20025;-75
2023/12/18 04:37:24;;;;;;;47.97;24.98;;;;;;;;;;5069786;28;20471;-78
2023/12/18 04:39:50;;;;;;;47.40;24.13;;;;;;;;;;5069039;28;20133;-76
2023/12/18 04:42:16;;;;;;;44.38;24.25;;;;;;;;;;5069437;28;20111;-77
2023/12/18 04:44:43;;;;;;;48.20;24.08;;;;;;;;;;5070935;28;20894;-76
2023/12/18 04:47:09;;;;;;;45.92;23.17;;;;;;;;;;5074211;28;20021;-76
2023/12/18 04:49:35;;;;;;;49.22;23.95;;;;;;;;;;5085578;28;20062;-77
2023/12/18 04:52:02;;;;;;;55.05;23.98;;;;;;;;;;5068981;28;20025;-75
2023/12/18 04:54:28;;;;;;;52.92;24.45;;;;;;;;;;5070559;28;20029;-77
2023/12/18 04:56:54;;;;;;;51.05;23.90;;;;;;;;;;5069675;28;20028;-77
2023/12/18 04:59:21;;;;;;;48.83;23.80;;;;;;;;;;5069125;28;20041;-76
2023/12/18 05:01:47;;;;;;;44.92;23.20;;;;;;;;;;5068630;28;20044;-76
2023/12/18 05:04:14;;;;;;;57.20;24.25;;;;;;;;;;5073253;28;20032;-76
2023/12/18 05:06:40;;;;;;;46.90;25.45;;;;;;;;;;5070936;28;20093;-76
2023/12/18 05:09:07;;;;;;;51.13;24.15;;;;;;;;;;5070234;28;20082;-77
2023/12/18 05:11:33;;;;;;;46.42;24.27;;;;;;;;;;5071264;28;20052;-76
2023/12/18 05:13:59;;;;;;;47.60;24.88;;;;;;;;;;5069035;28;20029;-76
2023/12/18 05:16:25;;;;;;;45.45;25.42;;;;;;;;;;5070293;28;20472;-76
2023/12/18 05:18:53;;;;;;;54.72;24.88;;;;;;;;;;5072409;28;20082;-76
2023/12/18 05:21:19;;;;;;;51.08;27.50;;;;;;;;;;5071922;28;20020;-76
2023/12/18 05:23:47;;;;;;;51.95;25.52;;;;;;;;;;5073435;28;20029;-77
2023/12/18 05:26:13;;;;;;;44.85;26.33;;;;;;;;;;5078679;28;20048;-76
2023/12/18 05:28:39;;;;;;;51.97;26.55;;;;;;;;;;5086353;28;20083;-76
2023/12/18 05:31:09;;;;;;;48.00;25.35;;;;;;;;;;5071956;28;20078;-76
2023/12/18 05:33:35;;;;;;;50.95;25.08;;;;;;;;;;5072025;28;20442;-75
2023/12/18 05:36:01;;;;;;;56.35;25.10;;;;;;;;;;5074730;28;20070;-76
2023/12/18 05:38:27;;;;;;;46.03;26.67;;;;;;;;;;5069258;28;20024;-77
2023/12/18 05:40:54;;;;;;;56.65;25.15;;;;;;;;;;5069107;28;20025;-78
2023/12/18 05:43:20;;;;;;;52.65;25.85;;;;;;;;;;5068349;28;20036;-76
2023/12/18 05:45:46;;;;;;;47.42;25.00;;;;;;;;;;5084469;28;20516;-77
2023/12/18 05:48:12;;;;;;;58.33;24.90;;;;;;;;;;5067668;28;20052;-76
2023/12/18 05:50:38;;;;;;;48.65;26.92;;;;;;;;;;5066980;28;20025;-77
2023/12/18 05:53:04;;;;;;;54.92;26.27;;;;;;;;;;5049900;28;20029;-77
2023/12/18 05:55:31;;;;;;;51.40;26.02;;;;;;;;;;5068317;28;20564;-78
2023/12/18 05:57:57;;;;;;;43.45;26.33;;;;;;;;;;5069431;28;20123;-78
2023/12/18 06:00:23;;;;;;;48.20;26.40;;;;;;;;;;5084959;28;20107;-76
2023/12/18 06:02:49;;;;;;;55.00;27.35;;;;;;;;;;5068681;28;20037;-75
2023/12/18 06:05:15;;;;;;;59.72;27.85;;;;;;;;;;5069339;28;20033;-75
2023/12/18 06:07:42;;;;;;;49.90;26.45;;;;;;;;;;5068272;28;20079;-76
2023/12/18 06:10:09;;;;;;;51.17;28.25;;;;;;;;;;5084592;28;20063;-76
2023/12/18 06:12:35;;;;;;;50.85;27.52;;;;;;;;;;5067087;28;20028;-77
2023/12/18 06:15:02;;;;;;;51.55;27.55;;;;;;;;;;5069335;28;20392;-76
2023/12/18 06:17:28;;;;;;;53.00;28.40;;;;;;;;;;5096589;28;20024;-80
2023/12/18 06:19:54;;;;;;;49.45;26.92;;;;;;;;;;5069225;28;20025;-77
2023/12/18 06:22:22;;;;;;;57.58;28.05;;;;;;;;;;5065414;28;20115;-77
2023/12/18 06:24:48;;;;;;;59.13;29.15;;;;;;;;;;5048748;28;20036;-77
2023/12/18 06:27:16;;;;;;;52.97;28.67;;;;;;;;;;5042460;28;20050;-77
2023/12/18 06:29:43;;;;;;;46.50;28.52;;;;;;;;;;5069628;28;20110;-76
2023/12/18 06:32:09;;;;;;;53.65;28.85;;;;;;;;;;5068249;28;20570;-77
2023/12/18 06:34:35;;;;;;;53.58;26.88;;;;;;;;;;5067925;28;20021;-79
2023/12/18 06:37:01;;;;;;;57.97;28.42;;;;;;;;;;5069805;28;20033;-76
2023/12/18 06:39:27;;;;;;;45.95;27.50;;;;;;;;;;5067034;28;20037;-76
2023/12/18 06:41:53;;;;;;;52.97;28.27;;;;;;;;;;5068184;28;20093;-77
2023/12/18 06:44:19;;;;;;;55.30;28.48;;;;;;;;;;5067514;28;20060;-78
2023/12/18 06:46:46;;;;;;;51.28;27.45;;;;;;;;;;5068592;28;20074;-75
2023/12/18 06:49:14;;;;;;;50.92;27.13;;;;;;;;;;5068201;28;20039;-78
2023/12/18 06:51:40;;;;;;;49.03;26.23;;;;;;;;;;5068326;28;20041;-76
2023/12/18 06:54:06;;;;;;;59.20;28.98;;;;;;;;;;5084048;28;20047;-76
2023/12/18 06:56:32;;;;;;;53.95;28.27;;;;;;;;;;5069029;28;20036;-76
2023/12/18 06:58:58;;;;;;;51.03;29.00;;;;;;;;;;5068029;28;20123;-76
2023/12/18 07:01:37;;;;;;;51.42;28.10;;;;;;;;;;5067417;28;20074;-79
2023/12/18 07:04:03;;;;;;;55.03;29.35;;;;;;;;;;5084649;28;20047;-76
2023/12/18 07:06:30;;;;;;;52.95;27.65;;;;;;;;;;5067990;28;20056;-75
2023/12/18 07:08:57;;;;;;;48.65;27.33;;;;;;;;;;5068023;28;20371;-76
2023/12/18 07:11:23;;;;;;;54.40;28.35;;;;;;;;;;5084543;28;20025;-77
2023/12/18 07:13:51;;;;;;;51.95;29.42;;;;;;;;;;5084293;28;20195;-78
2023/12/18 07:16:24;;;;;;;54.00;27.75;;;;;;;;;;5066032;28;20051;-78
2023/12/18 07:18:50;;;;;;;48.72;25.65;;;;;;;;;;5068297;28;20239;-78
2023/12/18 07:21:17;;;;;;;49.10;27.23;;;;;;;;;;5068794;28;20123;-78
2023/12/18 07:23:43;;;;;;;50.55;28.60;;;;;;;;;;5067998;28;20041;-76
2023/12/18 07:26:13;;;;;;;56.92;27.70;;;;;;;;;;5069824;28;20029;-76
2023/12/18 07:28:45;;;;;;;61.15;26.65;;;;;;;;;;5068358;28;20040;-77
2023/12/18 07:31:11;;;;;;;48.58;27.50;;;;;;;;;;5079348;28;20046;-75
2023/12/18 07:33:38;;;;;;;50.83;26.13;;;;;;;;;;5085868;28;20461;-77
2023/12/18 07:36:04;;;;;;;54.25;27.92;;;;;;;;;;5072191;28;20024;-76
2023/12/18 07:38:30;;;;;;;52.38;28.15;;;;;;;;;;5090229;28;20074;-77
2023/12/18 07:40:57;;;;;;;49.75;26.00;;;;;;;;;;5072941;28;20055;-76
2023/12/18 07:43:23;;;;;;;51.72;26.38;;;;;;;;;;5070269;28;20073;-75
2023/12/18 07:45:49;;;;;;;50.35;26.63;;;;;;;;;;5083962;28;20115;-77
2023/12/18 07:48:15;;;;;;;49.42;25.80;;;;;;;;;;5075218;28;20059;-78
2023/12/18 07:50:42;;;;;;;48.35;26.70;;;;;;;;;;5068586;28;20045;-77
2023/12/18 07:53:08;;;;;;;51.50;27.67;;;;;;;;;;5067236;28;20148;-75
2023/12/18 07:55:35;;;;;;;52.78;27.45;;;;;;;;;;5066840;28;20032;-76
2023/12/18 07:58:01;;;;;;;48.20;26.38;;;;;;;;;;5068602;28;20028;-76
2023/12/18 08:00:27;;;;;;;50.35;25.65;;;;;;;;;;5064308;28;20029;-77
2023/12/18 08:02:53;;;;;;;54.40;27.08;;;;;;;;;;5067535;28;20051;-78
2023/12/18 08:05:20;;;;;;;52.53;28.58;;;;;;;;;;5068408;28;20040;-76
2023/12/18 08:07:46;;;;;;;51.90;27.90;;;;;;;;;;5068243;28;20051;-77
2023/12/18 08:10:14;;;;;;;47.85;26.95;;;;;;;;;;5067949;28;20532;-76
2023/12/18 08:12:41;;;;;;;50.33;28.15;;;;;;;;;;5069176;28;20028;-78
2023/12/18 08:15:07;;;;;;;50.00;26.23;;;;;;;;;;5071716;28;20417;-76
2023/12/18 08:17:38;;;;;;;51.05;27.40;;;;;;;;;;5079920;28;20437;-77
2023/12/18 08:20:05;;;;;;;52.10;28.33;;;;;;;;;;5079499;28;20040;-75
2023/12/18 08:22:31;;;;;;;45.00;26.60;;;;;;;;;;5071172;28;20082;-77
2023/12/18 08:24:57;;;;;;;48.08;27.90;;;;;;;;;;5083269;28;20449;-78
2023/12/18 08:27:23;;;;;;;52.08;28.42;;;;;;;;;;5092583;28;20043;-77
2023/12/18 08:29:51;;;;;;;45.70;27.10;;;;;;;;;;5091283;28;20121;-77
2023/12/18 08:32:17;;;;;;;52.28;28.02;;;;;;;;;;5074128;28;20028;-76
2023/12/18 08:34:43;;;;;;;45.33;27.38;;;;;;;;;;5091587;28;20040;-76
2023/12/18 08:37:09;;;;;;;49.03;27.08;;;;;;;;;;5095159;28;20035;-76
2023/12/18 08:39:35;;;;;;;55.65;27.00;;;;;;;;;;5095452;28;20119;-75
2023/12/18 08:42:02;;;;;;;48.20;27.08;;;;;;;;;;5099384;28;20047;-76
2023/12/18 08:44:28;;;;;;;49.65;29.10;;;;;;;;;;5078752;28;20098;-77
2023/12/18 08:46:54;;;;;;;57.13;28.40;;;;;;;;;;5090688;28;20024;-77
2023/12/18 08:49:21;;;;;;;52.55;28.38;;;;;;;;;;5091342;28;20143;-77
2023/12/18 08:51:48;;;;;;;53.20;28.30;;;;;;;;;;5092499;28;20069;-78
2023/12/18 08:54:14;;;;;;;53.78;28.15;;;;;;;;;;5088432;28;20032;-78
2023/12/18 08:56:40;;;;;;;50.75;27.45;;;;;;;;;;5070445;28;20052;-77
2023/12/18 08:59:06;;;;;;;54.80;28.48;;;;;;;;;;5070439;28;20089;-76
2023/12/18 09:01:37;;;;;;;59.50;28.80;;;;;;;;;;5070126;28;20516;-76
2023/12/18 09:04:03;;;;;;;47.15;28.08;;;;;;;;;;5069497;28;20088;-76
2023/12/18 09:06:30;;;;;;;50.80;27.00;;;;;;;;;;5050888;28;20068;-76
2023/12/18 09:08:56;;;;;;;55.55;26.75;;;;;;;;;;5049330;28;20040;-76
2023/12/18 09:11:22;;;;;;;58.88;28.98;;;;;;;;;;5049657;28;20025;-75
2023/12/18 09:13:48;;;;;;;52.63;26.50;;;;;;;;;;5051237;28;20098;-76
2023/12/18 09:16:15;;;;;;;51.67;28.90;;;;;;;;;;5093569;28;20187;-77
2023/12/18 09:18:41;;;;;;;46.97;27.23;;;;;;;;;;5052223;28;20151;-78
2023/12/18 09:21:07;;;;;;;51.33;28.52;;;;;;;;;;5052812;28;20041;-76
2023/12/18 09:23:34;;;;;;;51.47;26.77;;;;;;;;;;5062051;28;20063;-76
2023/12/18 09:26:04;;;;;;;53.75;28.40;;;;;;;;;;5068699;28;20094;-79
2023/12/18 09:28:31;;;;;;;50.70;27.23;;;;;;;;;;5069624;28;20059;-77
2023/12/18 09:30:57;;;;;;;51.17;29.20;;;;;;;;;;5067205;28;20027;-75
2023/12/18 09:33:24;;;;;;;48.78;27.05;;;;;;;;;;5071179;28;20042;-76
2023/12/18 09:35:51;;;;;;;56.05;28.13;;;;;;;;;;5069219;28;20024;-77
2023/12/18 09:38:17;;;;;;;41.40;27.27;;;;;;;;;;5070326;28;20086;-78
2023/12/18 09:40:44;;;;;;;47.20;27.27;;;;;;;;;;5069086;28;20039;-77
2023/12/18 09:43:16;;;;;;;45.90;28.10;;;;;;;;;;5070482;28;20079;-79
2023/12/18 09:45:43;;;;;;;47.50;25.92;;;;;;;;;;5069899;28;20494;-78
2023/12/18 09:48:09;;;;;;;48.05;27.90;;;;;;;;;;5060356;28;20021;-76
2023/12/18 09:50:35;;;;;;;54.97;26.42;;;;;;;;;;5082464;28;20093;-76
2023/12/18 09:53:12;;;;;;;46.88;27.35;;;;;;;;;;5092522;28;20040;-76
2023/12/18 09:55:38;;;;;;;44.85;25.17;;;;;;;;;;5077620;28;20021;-76
2023/12/18 09:58:06;;;;;;;47.42;25.58;;;;;;;;;;5070265;28;20546;-76
2023/12/18 10:00:32;;;;;;;52.47;25.67;;;;;;;;;;5070261;28;20024;-77
2023/12/18 10:02:59;;;;;;;50.60;25.77;;;;;;;;;;5088819;28;20040;-77
2023/12/18 10:05:25;;;;;;;46.92;26.13;;;;;;;;;;5090873;28;20096;-77
2023/12/18 10:07:53;;;;;;;50.10;25.27;;;;;;;;;;5071390;28;20064;-78
2023/12/18 10:10:20;;;;;;;40.85;25.15;;;;;;;;;;5070094;28;20523;-80
2023/12/18 10:12:47;;;;;;;43.97;25.92;;;;;;;;;;5069782;28;20118;-78
2023/12/18 10:15:17;;;;;;;44.65;22.60;;;;;;;;;;5104072;28;20504;-76
2023/12/18 10:17:43;;;;;;;38.63;22.92;;;;;;;;;;5089938;28;20093;-76
2023/12/18 10:20:11;;;;;;;43.67;23.15;;;;;;;;;;5091054;28;20052;-78
2023/12/18 10:22:37;;;;;;;38.65;22.15;;;;;;;;;;5073643;28;20499;-77
2023/12/18 10:25:04;;;;;;;43.20;21.98;;;;;;;;;;5068182;28;20028;-77
2023/12/18 10:27:34;;;;;;;48.75;23.20;;;;;;;;;;5067660;28;20047;-76
2023/12/18 10:30:00;;;;;;;41.35;22.60;;;;;;;;;;5089452;28;20247;-78
2023/12/18 10:32:27;;;;;;;43.85;23.15;;;;;;;;;;5069586;28;20094;-77
2023/12/18 10:34:58;;;;;;;46.35;24.40;;;;;;;;;;5070210;28;20033;-79
2023/12/18 10:37:27;;;;;;;42.00;23.60;;;;;;;;;;5056694;28;20039;-76
2023/12/18 10:39:55;;;;;;;45.03;23.83;;;;;;;;;;5049450;28;20025;-77
2023/12/18 10:42:28;;;;;;;45.75;24.15;;;;;;;;;;5049637;28;20476;-76
2023/12/18 10:44:55;;;;;;;41.15;23.88;;;;;;;;;;5072847;28;20051;-76
2023/12/18 10:47:21;;;;;;;42.20;22.88;;;;;;;;;;5076659;28;20119;-77
2023/12/18 10:49:48;;;;;;;46.70;24.45;;;;;;;;;;5069355;28;20048;-77
2023/12/18 10:52:16;;;;;;;43.38;24.35;;;;;;;;;;5068010;28;20429;-76
2023/12/18 10:54:43;;;;;;;55.47;24.65;;;;;;;;;;5069463;28;20516;-77
2023/12/18 10:57:10;;;;;;;42.45;24.73;;;;;;;;;;5068765;28;20367;-77
2023/12/18 10:59:37;;;;;;;50.45;25.33;;;;;;;;;;5069224;28;20513;-78
2023/12/18 11:02:05;;;;;;;44.03;24.17;;;;;;;;;;5083081;28;20106;-77
2023/12/18 11:04:32;;;;;;;49.22;25.83;;;;;;;;;;5089864;28;20105;-76
2023/12/18 11:06:58;;;;;;;39.38;23.58;;;;;;;;;;5082246;28;20045;-77
2023/12/18 11:09:24;;;;;;;47.47;25.42;;;;;;;;;;5070157;28;20029;-77
2023/12/18 11:11:55;;;;;;;44.72;23.58;;;;;;;;;;5069776;28;20036;-77
2023/12/18 11:14:30;;;;;;;42.38;24.05;;;;;;;;;;5069584;28;20045;-77
2023/12/18 11:17:02;;;;;;;48.60;23.63;;;;;;;;;;5069669;28;20108;-78
2023/12/18 11:19:35;;;;;;;35.80;21.50;;;;;;;;;;5089860;28;20028;-77
2023/12/18 11:22:04;;;;;;;45.42;24.33;;;;;;;;;;5105613;28;20036;-78
2023/12/18 11:24:37;;;;;;;47.67;23.55;;;;;;;;;;5088844;28;20032;-77
2023/12/18 11:27:05;;;;;;;46.75;22.95;;;;;;;;;;5081061;28;20113;-77
2023/12/18 11:29:34;;;;;;;45.08;23.42;;;;;;;;;;5077338;28;20461;-77
2023/12/18 11:32:00;;;;;;;44.67;23.48;;;;;;;;;;5088191;28;20058;-77
2023/12/18 11:34:26;;;;;;;41.25;22.75;;;;;;;;;;5090073;28;20481;-76
2023/12/18 11:36:52;;;;;;;45.00;22.95;;;;;;;;;;5082700;28;20036;-79
2023/12/18 11:39:21;;;;;;;44.45;22.58;;;;;;;;;;5068020;28;20036;-78
2023/12/18 11:41:47;;;;;;;45.35;23.20;;;;;;;;;;5067826;28;20043;-79
2023/12/18 11:44:17;;;;;;;43.15;22.73;;;;;;;;;;5077634;28;20131;-77
2023/12/18 11:46:46;;;;;;;44.75;23.58;;;;;;;;;;5083841;28;20041;-77
2023/12/18 11:49:13;;;;;;;41.05;22.73;;;;;;;;;;5070784;28;20491;-77
2023/12/18 11:51:43;;;;;;;44.13;22.80;;;;;;;;;;5073810;28;20432;-77
2023/12/18 11:54:13;;;;;;;40.78;22.88;;;;;;;;;;5076786;28;20044;-77
2023/12/18 11:56:41;;;;;;;40.90;23.23;;;;;;;;;;5075188;28;20102;-76
2023/12/18 11:59:07;;;;;;;51.10;23.45;;;;;;;;;;5093062;28;20651;-78
2023/12/18 12:01:33;;;;;;;46.60;23.15;;;;;;;;;;5092823;28;20027;-78
2023/12/18 12:04:00;;;;;;;40.58;23.38;;;;;;;;;;5091594;28;20389;-78
2023/12/18 12:06:26;;;;;;;50.20;24.35;;;;;;;;;;5090805;28;20123;-79
2023/12/18 12:08:53;;;;;;;43.95;23.90;;;;;;;;;;5091228;28;20496;-77
2023/12/18 12:11:20;;;;;;;44.60;23.38;;;;;;;;;;5091395;28;20024;-79
2023/12/18 12:13:48;;;;;;;40.35;23.50;;;;;;;;;;5088809;28;20039;-78
2023/12/18 12:16:18;;;;;;;43.35;23.60;;;;;;;;;;5091109;28;20500;-79
2023/12/18 12:18:45;;;;;;;53.45;24.35;;;;;;;;;;5071434;28;20036;-78
2023/12/18 12:21:12;;;;;;;39.92;23.80;;;;;;;;;;5072718;28;20032;-77
2023/12/18 12:23:38;;;;;;;50.90;23.50;;;;;;;;;;5074724;28;20032;-79
2023/12/18 12:26:05;;;;;;;55.63;24.58;;;;;;;;;;5089684;28;20054;-76
2023/12/18 12:28:31;;;;;;;43.63;23.58;;;;;;;;;;5085779;28;20020;-78
2023/12/18 12:31:01;;;;;;;46.55;23.30;;;;;;;;;;5093641;28;20036;-76
2023/12/18 12:33:40;;;;;;;45.60;23.77;;;;;;;;;;5084092;28;20150;-78
2023/12/18 12:36:07;;;;;;;43.47;24.15;;;;;;;;;;5070483;28;20067;-77
2023/12/18 12:38:35;;;;;;;44.78;23.23;;;;;;;;;;5069962;28;20029;-78
2023/12/18 12:41:02;;;;;;;46.33;22.55;;;;;;;;;;5069163;28;20033;-77
2023/12/18 12:43:28;;;;;;;42.55;22.98;;;;;;;;;;5070513;28;20056;-78
2023/12/18 12:45:54;;;;;;;57.00;24.77;;;;;;;;;;5067440;28;20054;-78
2023/12/18 12:48:23;;;;;;;38.75;22.95;;;;;;;;;;5068727;28;20102;-77
2023/12/18 12:50:49;;;;;;;42.78;24.02;;;;;;;;;;5067192;28;20115;-77
2023/12/18 12:53:16;;;;;;;42.13;23.17;;;;;;;;;;5068943;28;20032;-79
2023/12/18 12:55:42;;;;;;;37.63;22.02;;;;;;;;;;5069581;28;20033;-76
2023/12/18 12:58:09;;;;;;;44.08;24.08;;;;;;;;;;5068724;28;20029;-76
2023/12/18 13:00:36;;;;;;;46.03;23.52;;;;;;;;;;5069012;28;20028;-76
2023/12/18 13:03:02;;;;;;;39.35;23.77;;;;;;;;;;5069921;28;20071;-77
2023/12/18 13:05:29;;;;;;;39.72;23.08;;;;;;;;;;5070144;28;20020;-78
2023/12/18 13:07:55;;;;;;;54.22;23.55;;;;;;;;;;5069239;28;20032;-79
2023/12/18 13:10:25;;;;;;;44.67;23.55;;;;;;;;;;5070001;28;20031;-78
2023/12/18 13:12:53;;;;;;;49.83;24.95;;;;;;;;;;5067622;28;20029;-77
2023/12/18 13:15:20;;;;;;;60.15;24.55;;;;;;;;;;5068753;28;20028;-76
2023/12/18 13:17:46;;;;;;;43.72;22.45;;;;;;;;;;5067033;28;20037;-76
2023/12/18 13:20:12;;;;;;;50.45;24.40;;;;;;;;;;5067846;28;20069;-78
2023/12/18 13:22:39;;;;;;;45.83;23.08;;;;;;;;;;5068356;28;20474;-79
2023/12/18 13:25:05;;;;;;;40.90;22.45;;;;;;;;;;5068871;28;20542;-76
2023/12/18 13:27:31;;;;;;;46.38;22.48;;;;;;;;;;5068268;28;20034;-76
2023/12/18 13:29:58;;;;;;;44.10;22.85;;;;;;;;;;5069911;28;20366;-81
2023/12/18 13:32:25;;;;;;;46.22;23.05;;;;;;;;;;5066008;28;20020;-78
2023/12/18 13:34:55;;;;;;;41.33;21.92;;;;;;;;;;5068861;28;20156;-77
2023/12/18 13:37:22;;;;;;;41.42;22.23;;;;;;;;;;5070127;28;20024;-77
2023/12/18 13:39:48;;;;;;;37.40;21.42;;;;;;;;;;5068662;28;20044;-78
2023/12/18 13:42:15;;;;;;;43.35;23.13;;;;;;;;;;5070537;28;20102;-77
2023/12/18 13:44:44;;;;;;;38.72;21.90;;;;;;;;;;5068572;28;20076;-77
2023/12/18 13:47:10;;;;;;;45.20;22.33;;;;;;;;;;5066069;28;20024;-78
2023/12/18 13:49:38;;;;;;;44.85;21.45;;;;;;;;;;5066552;28;20036;-78
2023/12/18 13:52:04;;;;;;;41.58;21.35;;;;;;;;;;5067571;28;20025;-78
2023/12/18 13:54:30;;;;;;;44.72;22.25;;;;;;;;;;5068161;28;20043;-78
2023/12/18 13:56:56;;;;;;;43.33;22.13;;;;;;;;;;5064867;28;20024;-78
2023/12/18 13:59:23;;;;;;;48.10;22.38;;;;;;;;;;5069829;28;20032;-77
2023/12/18 14:01:49;;;;;;;42.78;23.17;;;;;;;;;;5067208;28;20037;-78
2023/12/18 14:04:15;;;;;;;41.42;22.63;;;;;;;;;;5067885;28;20032;-77
2023/12/18 14:06:41;;;;;;;43.05;22.75;;;;;;;;;;5068076;28;20068;-78
2023/12/18 14:09:09;;;;;;;42.00;23.05;;;;;;;;;;5067650;28;20047;-76
2023/12/18 14:11:36;;;;;;;38.67;23.13;;;;;;;;;;5068563;28;20029;-77
2023/12/18 14:14:02;;;;;;;51.13;24.08;;;;;;;;;;5069692;28;20032;-77